Aérodrome :
LOGIN :

S'inscrire | Disclaimer

   EN    FR    IT 

 










Légende :    VFR   VFR Marginal   IFR   IFR Intensif   IFR Très Intensif
Visi : 
Plafond : 
>= 8 km
>= 3000ft
5 à 8 km
1000 à 3000 ft
1500m à 5 km
500 à 1000 ft
800 à 1500m
200 à 500 ft
< 800m
< 200 ft
Symboles :   Orages  Brouillard  Fortes neiges  Fortes précipitations  Vent > 20 kt
SIGMETs :   Divers  Orages  Givrage  Turbulence  Onde Orograph.  Cendres Volcan.






- Altitude de l'aérodrome : 1548 ft


LKNA - Náměšť Air Base

DERNIER METAR :
  • 242100Z 10009KT CAVOK 16/13 Q1007 RMK BLU

METARs EXPIRÉS :
  • 242030Z 10006KT CAVOK 17/13 Q1008 NOSIG RMK BLU BLU
  • 242000Z 12006KT CAVOK 17/12 Q1008 NOSIG RMK BLU BLU
  • 241930Z 15005KT CAVOK 18/11 Q1008 NOSIG
  • 241900Z 15005KT CAVOK 18/11 Q1008 NOSIG RMK BLU BLU
  • 241830Z 14005KT CAVOK 19/11 Q1009 NOSIG RMK BLU BLU
  • 241800Z 18004KT 130V220 CAVOK 18/12 Q1008 NOSIG RMK BLU BLU

TAF TAF LKNA
Valide du 24 à 18h jusqu'au 25 à 18h UTC


241700Z 2418/2518 18006KT CAVOK
BECMG 2418/2420 16010KT
BECMG 2503/2505 15014KT 8000 RA BKN020
PROB30
TEMPO 2506/2514 5000 RA BKN010



MET'MAP, la Météo Aéronautique d'un coup d'oeil ! - Copyright ORBIFLY Décembre 2007 - Disclaimer

ORBIFLY MET'MAP TEAM :

Programmation & Développement : Alexandra Zaïnal
Sur une idée originale de : Baudouin d'Aumeries
Assistance à la programmation : Marc-Olivier Méhu
Soutien technique & logistique : Manuel Goepfert

Contact : metmap@orbifly.com




SOURCES & CREDITS :

   NOAA